Rio Grande — WDG9180 — position and weather

sailwx.info

Track history (hours):
 
Tides and Currents Weather Stations Pressure Air Temp Water Temp Dewpoint Dewpoint Depression Visibility Wind Speed Wind Dir Waves Ship Positions

Rio Grande

Owner: Higman Barge Lines, Inc, Orange, TX. More information available from US FCC via Universal Licensing System and Coast Guard Vessel Documentation Center.

Last reported at 2018-Feb-20 11:36 UTC. Time now 2018-Feb-20 23:30 UTC.
Position N 31°59' W 091°06'.

Length 22 m; draft 3 m.

Type: Towing. MMSI: 367585170.

Date/timePositionNaut miles runAvg speedWind from/ knotsBaromVisibWave heightAir tempDewpointWater temp
2018-Feb-20 11:36N 31°59' W 091°06'110.1
2018-Feb-20 11:30N 31°60' W 091°06'5 9.5
2018-Feb-20 10:59N 32°05' W 091°04'2 1.2
2018-Feb-20 09:34N 32°06' W 091°05'1 7.6
2018-Feb-20 09:30N 32°06' W 091°06'2 5.1
2018-Feb-20 09:00N 32°08' W 091°04'4 7.6
2018-Feb-20 08:31N 32°10' W 091°00'510.4
2018-Feb-20 08:01N 32°15' W 090°59'5 9.8
2018-Feb-20 07:31N 32°18' W 090°55'3 6.8
2018-Feb-20 07:01N 32°21' W 090°57'3 6.6
2018-Feb-20 06:31N 32°24' W 090°59'4 8.6
2018-Feb-20 06:01N 32°26' W 091°04'5 9.0
2018-Feb-20 05:31N 32°30' W 091°07'4 8.6
2018-Feb-20 05:00N 32°34' W 091°06'5 9.0
2018-Feb-20 04:24N 32°39' W 091°09'  
Track history (hours):
 
Tides and Currents Weather Stations Pressure Air Temp Water Temp Dewpoint Dewpoint Depression Visibility Wind Speed Wind Dir Waves Ship Positions

Rio Grande

Owner: Higman Barge Lines, Inc, Orange, TX. More information available from US FCC via Universal Licensing System and Coast Guard Vessel Documentation Center.

Last reported at 2018-Feb-20 11:36 UTC. Time now 2018-Feb-20 23:30 UTC.
Position N 31°59' W 091°06'.

Length 22 m; draft 3 m.

Type: Towing. MMSI: 367585170.

Date/timePositionNaut miles runAvg speedWind from/ knotsBaromVisibWave heightAir tempDewpointWater temp
2018-Feb-20 11:36N 31°59' W 091°06'110.1
2018-Feb-20 11:30N 31°60' W 091°06'5 9.5
2018-Feb-20 10:59N 32°05' W 091°04'2 1.2
2018-Feb-20 09:34N 32°06' W 091°05'1 7.6
2018-Feb-20 09:30N 32°06' W 091°06'2 5.1
2018-Feb-20 09:00N 32°08' W 091°04'4 7.6
2018-Feb-20 08:31N 32°10' W 091°00'510.4
2018-Feb-20 08:01N 32°15' W 090°59'5 9.8
2018-Feb-20 07:31N 32°18' W 090°55'3 6.8
2018-Feb-20 07:01N 32°21' W 090°57'3 6.6
2018-Feb-20 06:31N 32°24' W 090°59'4 8.6
2018-Feb-20 06:01N 32°26' W 091°04'5 9.0
2018-Feb-20 05:31N 32°30' W 091°07'4 8.6
2018-Feb-20 05:00N 32°34' W 091°06'5 9.0
2018-Feb-20 04:24N 32°39' W 091°09'  

Dump ship's entire track history